sensor_id;sensor_type;location;lat;lon;timestamp;P1;durP1;ratioP1;P2;durP2;ratioP2
79662;SDS011;69130;48.724;8.982;2023-06-22T00:00:40;8.40;;;4.60;;
79662;SDS011;69130;48.724;8.982;2023-06-22T00:03:07;8.93;;;4.95;;
79662;SDS011;69130;48.724;8.982;2023-06-22T00:05:33;9.02;;;4.80;;
79662;SDS011;69130;48.724;8.982;2023-06-22T00:08:01;8.52;;;4.47;;
79662;SDS011;69130;48.724;8.982;2023-06-22T00:10:28;10.30;;;5.13;;
79662;SDS011;69130;48.724;8.982;2023-06-22T00:12:54;9.80;;;5.10;;
79662;SDS011;69130;48.724;8.982;2023-06-22T00:15:19;8.80;;;5.07;;
79662;SDS011;69130;48.724;8.982;2023-06-22T00:17:45;7.57;;;4.93;;
79662;SDS011;69130;48.724;8.982;2023-06-22T00:20:10;7.10;;;4.28;;
79662;SDS011;69130;48.724;8.982;2023-06-22T00:22:36;7.80;;;4.40;;
79662;SDS011;69130;48.724;8.982;2023-06-22T00:25:04;8.68;;;4.78;;
79662;SDS011;69130;48.724;8.982;2023-06-22T00:27:32;6.80;;;3.92;;
79662;SDS011;69130;48.724;8.982;2023-06-22T00:29:58;7.93;;;4.88;;
79662;SDS011;69130;48.724;8.982;2023-06-22T00:32:23;7.55;;;4.50;;
79662;SDS011;69130;48.724;8.982;2023-06-22T00:34:48;9.70;;;4.53;;
79662;SDS011;69130;48.724;8.982;2023-06-22T00:37:15;7.63;;;4.63;;
79662;SDS011;69130;48.724;8.982;2023-06-22T00:39:41;8.80;;;4.57;;
79662;SDS011;69130;48.724;8.982;2023-06-22T00:42:07;8.57;;;4.70;;
79662;SDS011;69130;48.724;8.982;2023-06-22T00:44:32;8.35;;;4.97;;
79662;SDS011;69130;48.724;8.982;2023-06-22T00:46:58;10.70;;;5.40;;
79662;SDS011;69130;48.724;8.982;2023-06-22T00:49:25;11.48;;;5.50;;
79662;SDS011;69130;48.724;8.982;2023-06-22T00:51:50;9.88;;;5.07;;
79662;SDS011;69130;48.724;8.982;2023-06-22T00:54:16;8.73;;;4.90;;
79662;SDS011;69130;48.724;8.982;2023-06-22T00:56:49;9.05;;;5.32;;
79662;SDS011;69130;48.724;8.982;2023-06-22T00:59:17;8.45;;;5.55;;
79662;SDS011;69130;48.724;8.982;2023-06-22T01:01:43;7.53;;;4.13;;
79662;SDS011;69130;48.724;8.982;2023-06-22T01:04:09;6.80;;;4.20;;
79662;SDS011;69130;48.724;8.982;2023-06-22T01:06:38;7.32;;;4.45;;
79662;SDS011;69130;48.724;8.982;2023-06-22T01:09:14;8.57;;;4.40;;
79662;SDS011;69130;48.724;8.982;2023-06-22T01:11:45;8.43;;;4.90;;
79662;SDS011;69130;48.724;8.982;2023-06-22T01:14:20;10.50;;;5.43;;
79662;SDS011;69130;48.724;8.982;2023-06-22T01:16:53;8.85;;;4.70;;
79662;SDS011;69130;48.724;8.982;2023-06-22T01:22:13;7.10;;;4.22;;
79662;SDS011;69130;48.724;8.982;2023-06-22T01:25:07;7.82;;;4.55;;
79662;SDS011;69130;48.724;8.982;2023-06-22T01:28:05;8.70;;;4.20;;
79662;SDS011;69130;48.724;8.982;2023-06-22T01:30:37;8.77;;;4.90;;
79662;SDS011;69130;48.724;8.982;2023-06-22T01:33:04;8.02;;;4.80;;
79662;SDS011;69130;48.724;8.982;2023-06-22T01:35:30;7.45;;;4.82;;
79662;SDS011;69130;48.724;8.982;2023-06-22T01:37:56;9.93;;;4.95;;
79662;SDS011;69130;48.724;8.982;2023-06-22T01:40:22;6.13;;;3.90;;
79662;SDS011;69130;48.724;8.982;2023-06-22T01:42:49;8.35;;;4.88;;
79662;SDS011;69130;48.724;8.982;2023-06-22T01:45:15;8.20;;;5.03;;
79662;SDS011;69130;48.724;8.982;2023-06-22T01:47:41;9.18;;;4.65;;
79662;SDS011;69130;48.724;8.982;2023-06-22T01:50:07;8.30;;;4.65;;
79662;SDS011;69130;48.724;8.982;2023-06-22T01:52:33;8.43;;;5.43;;
79662;SDS011;69130;48.724;8.982;2023-06-22T01:54:59;7.38;;;4.93;;
79662;SDS011;69130;48.724;8.982;2023-06-22T01:57:25;7.55;;;4.07;;
79662;SDS011;69130;48.724;8.982;2023-06-22T02:02:32;6.40;;;4.13;;
79662;SDS011;69130;48.724;8.982;2023-06-22T02:05:06;10.32;;;4.70;;
79662;SDS011;69130;48.724;8.982;2023-06-22T02:07:37;6.90;;;4.10;;
79662;SDS011;69130;48.724;8.982;2023-06-22T02:12:39;7.85;;;4.40;;
79662;SDS011;69130;48.724;8.982;2023-06-22T02:15:07;8.90;;;5.10;;
79662;SDS011;69130;48.724;8.982;2023-06-22T02:17:33;8.55;;;4.82;;
79662;SDS011;69130;48.724;8.982;2023-06-22T02:20:00;7.95;;;4.72;;
79662;SDS011;69130;48.724;8.982;2023-06-22T02:22:27;10.20;;;5.40;;
79662;SDS011;69130;48.724;8.982;2023-06-22T02:24:52;9.68;;;4.90;;
79662;SDS011;69130;48.724;8.982;2023-06-22T02:27:18;8.65;;;4.95;;
79662;SDS011;69130;48.724;8.982;2023-06-22T02:29:43;8.15;;;4.75;;
79662;SDS011;69130;48.724;8.982;2023-06-22T02:32:08;9.30;;;4.95;;
79662;SDS011;69130;48.724;8.982;2023-06-22T02:34:34;7.63;;;4.88;;
79662;SDS011;69130;48.724;8.982;2023-06-22T02:37:01;7.72;;;5.32;;
79662;SDS011;69130;48.724;8.982;2023-06-22T02:39:27;11.65;;;4.95;;
79662;SDS011;69130;48.724;8.982;2023-06-22T02:41:53;7.93;;;4.97;;
79662;SDS011;69130;48.724;8.982;2023-06-22T02:44:19;11.02;;;5.10;;
79662;SDS011;69130;48.724;8.982;2023-06-22T02:46:46;8.90;;;4.32;;
79662;SDS011;69130;48.724;8.982;2023-06-22T02:49:12;7.65;;;4.25;;
79662;SDS011;69130;48.724;8.982;2023-06-22T02:51:41;7.38;;;4.22;;
79662;SDS011;69130;48.724;8.982;2023-06-22T02:54:10;9.35;;;4.90;;
79662;SDS011;69130;48.724;8.982;2023-06-22T02:56:35;9.40;;;4.85;;
79662;SDS011;69130;48.724;8.982;2023-06-22T02:59:01;12.35;;;5.53;;
79662;SDS011;69130;48.724;8.982;2023-06-22T03:01:28;6.93;;;4.57;;
79662;SDS011;69130;48.724;8.982;2023-06-22T03:03:55;9.20;;;4.38;;
79662;SDS011;69130;48.724;8.982;2023-06-22T03:06:21;10.90;;;5.30;;
79662;SDS011;69130;48.724;8.982;2023-06-22T03:08:58;9.35;;;5.40;;
79662;SDS011;69130;48.724;8.982;2023-06-22T03:11:26;9.48;;;5.38;;
79662;SDS011;69130;48.724;8.982;2023-06-22T03:13:51;10.43;;;5.75;;
79662;SDS011;69130;48.724;8.982;2023-06-22T03:16:18;8.70;;;5.15;;
79662;SDS011;69130;48.724;8.982;2023-06-22T03:18:44;10.23;;;5.63;;
79662;SDS011;69130;48.724;8.982;2023-06-22T03:21:09;8.27;;;4.57;;
79662;SDS011;69130;48.724;8.982;2023-06-22T03:23:35;9.25;;;5.38;;
79662;SDS011;69130;48.724;8.982;2023-06-22T03:26:00;8.82;;;4.75;;
79662;SDS011;69130;48.724;8.982;2023-06-22T03:28:26;8.52;;;4.95;;
79662;SDS011;69130;48.724;8.982;2023-06-22T03:30:51;7.85;;;5.53;;
79662;SDS011;69130;48.724;8.982;2023-06-22T03:33:17;9.63;;;5.03;;
79662;SDS011;69130;48.724;8.982;2023-06-22T03:35:42;10.60;;;5.60;;
79662;SDS011;69130;48.724;8.982;2023-06-22T03:38:08;8.90;;;5.10;;
79662;SDS011;69130;48.724;8.982;2023-06-22T03:40:33;9.13;;;6.18;;
79662;SDS011;69130;48.724;8.982;2023-06-22T03:42:58;10.43;;;4.65;;
79662;SDS011;69130;48.724;8.982;2023-06-22T03:45:24;11.93;;;6.22;;
79662;SDS011;69130;48.724;8.982;2023-06-22T03:47:49;12.65;;;5.30;;
79662;SDS011;69130;48.724;8.982;2023-06-22T03:50:14;10.85;;;5.63;;
79662;SDS011;69130;48.724;8.982;2023-06-22T03:52:40;9.90;;;5.32;;
79662;SDS011;69130;48.724;8.982;2023-06-22T03:55:06;8.20;;;5.10;;
79662;SDS011;69130;48.724;8.982;2023-06-22T03:57:32;9.07;;;5.32;;
79662;SDS011;69130;48.724;8.982;2023-06-22T03:59:58;10.68;;;5.50;;
79662;SDS011;69130;48.724;8.982;2023-06-22T04:02:23;9.35;;;4.85;;
79662;SDS011;69130;48.724;8.982;2023-06-22T04:04:49;9.82;;;5.57;;
79662;SDS011;69130;48.724;8.982;2023-06-22T04:07:15;8.68;;;5.00;;
79662;SDS011;69130;48.724;8.982;2023-06-22T04:09:40;10.52;;;5.20;;
79662;SDS011;69130;48.724;8.982;2023-06-22T04:12:06;9.95;;;5.20;;
79662;SDS011;69130;48.724;8.982;2023-06-22T04:14:31;12.02;;;5.13;;
79662;SDS011;69130;48.724;8.982;2023-06-22T04:16:57;10.45;;;6.00;;
79662;SDS011;69130;48.724;8.982;2023-06-22T04:19:23;9.50;;;5.63;;
79662;SDS011;69130;48.724;8.982;2023-06-22T04:21:48;8.63;;;5.25;;
79662;SDS011;69130;48.724;8.982;2023-06-22T04:24:14;10.13;;;5.40;;
79662;SDS011;69130;48.724;8.982;2023-06-22T04:26:40;8.52;;;4.82;;
79662;SDS011;69130;48.724;8.982;2023-06-22T04:29:07;9.90;;;5.57;;
79662;SDS011;69130;48.724;8.982;2023-06-22T04:31:33;10.77;;;5.63;;
79662;SDS011;69130;48.724;8.982;2023-06-22T04:34:01;7.78;;;4.93;;
79662;SDS011;69130;48.724;8.982;2023-06-22T04:36:38;10.18;;;4.95;;
79662;SDS011;69130;48.724;8.982;2023-06-22T04:39:06;8.93;;;5.68;;
79662;SDS011;69130;48.724;8.982;2023-06-22T04:41:34;8.65;;;5.22;;
79662;SDS011;69130;48.724;8.982;2023-06-22T04:44:06;8.15;;;4.25;;
79662;SDS011;69130;48.724;8.982;2023-06-22T04:46:32;7.70;;;4.65;;
79662;SDS011;69130;48.724;8.982;2023-06-22T04:49:00;8.35;;;4.53;;
79662;SDS011;69130;48.724;8.982;2023-06-22T04:51:26;9.07;;;4.88;;
79662;SDS011;69130;48.724;8.982;2023-06-22T04:53:55;8.32;;;5.00;;
79662;SDS011;69130;48.724;8.982;2023-06-22T04:56:25;11.73;;;6.10;;
79662;SDS011;69130;48.724;8.982;2023-06-22T04:58:52;11.23;;;5.65;;
79662;SDS011;69130;48.724;8.982;2023-06-22T05:01:20;8.65;;;4.78;;
79662;SDS011;69130;48.724;8.982;2023-06-22T05:03:47;10.48;;;5.53;;
79662;SDS011;69130;48.724;8.982;2023-06-22T05:06:13;8.55;;;4.85;;
79662;SDS011;69130;48.724;8.982;2023-06-22T05:08:39;9.70;;;5.70;;
79662;SDS011;69130;48.724;8.982;2023-06-22T05:11:04;9.80;;;4.97;;
79662;SDS011;69130;48.724;8.982;2023-06-22T05:13:30;11.70;;;6.15;;
79662;SDS011;69130;48.724;8.982;2023-06-22T05:15:55;9.85;;;5.60;;
79662;SDS011;69130;48.724;8.982;2023-06-22T05:18:26;12.38;;;5.00;;
79662;SDS011;69130;48.724;8.982;2023-06-22T05:20:54;8.88;;;5.70;;
79662;SDS011;69130;48.724;8.982;2023-06-22T05:23:20;9.43;;;5.35;;
79662;SDS011;69130;48.724;8.982;2023-06-22T05:25:45;7.80;;;4.55;;
79662;SDS011;69130;48.724;8.982;2023-06-22T05:28:11;12.23;;;4.88;;
79662;SDS011;69130;48.724;8.982;2023-06-22T05:30:37;8.80;;;4.88;;
79662;SDS011;69130;48.724;8.982;2023-06-22T05:33:03;10.75;;;5.68;;
79662;SDS011;69130;48.724;8.982;2023-06-22T05:35:28;8.85;;;3.85;;
79662;SDS011;69130;48.724;8.982;2023-06-22T05:37:54;7.50;;;4.50;;
79662;SDS011;69130;48.724;8.982;2023-06-22T05:40:20;6.75;;;4.07;;
79662;SDS011;69130;48.724;8.982;2023-06-22T05:42:46;6.80;;;3.53;;
79662;SDS011;69130;48.724;8.982;2023-06-22T05:45:12;8.95;;;4.75;;
79662;SDS011;69130;48.724;8.982;2023-06-22T05:47:37;9.20;;;4.47;;
79662;SDS011;69130;48.724;8.982;2023-06-22T05:50:02;11.07;;;4.45;;
79662;SDS011;69130;48.724;8.982;2023-06-22T05:52:31;6.38;;;3.80;;
79662;SDS011;69130;48.724;8.982;2023-06-22T05:54:57;6.05;;;3.85;;
79662;SDS011;69130;48.724;8.982;2023-06-22T05:57:22;7.72;;;4.18;;
79662;SDS011;69130;48.724;8.982;2023-06-22T05:59:48;7.90;;;3.75;;
79662;SDS011;69130;48.724;8.982;2023-06-22T06:02:13;6.22;;;3.58;;
79662;SDS011;69130;48.724;8.982;2023-06-22T06:04:39;7.60;;;3.65;;
79662;SDS011;69130;48.724;8.982;2023-06-22T06:07:04;8.00;;;3.60;;
79662;SDS011;69130;48.724;8.982;2023-06-22T06:09:30;8.13;;;3.50;;
79662;SDS011;69130;48.724;8.982;2023-06-22T06:11:55;8.02;;;4.07;;
79662;SDS011;69130;48.724;8.982;2023-06-22T06:14:21;6.60;;;4.07;;
79662;SDS011;69130;48.724;8.982;2023-06-22T06:16:46;6.55;;;3.60;;
79662;SDS011;69130;48.724;8.982;2023-06-22T06:19:13;7.65;;;3.72;;
79662;SDS011;69130;48.724;8.982;2023-06-22T06:21:38;7.38;;;3.97;;
79662;SDS011;69130;48.724;8.982;2023-06-22T06:24:04;6.90;;;3.70;;
79662;SDS011;69130;48.724;8.982;2023-06-22T06:26:29;7.97;;;3.67;;
79662;SDS011;69130;48.724;8.982;2023-06-22T06:28:58;8.50;;;3.30;;
79662;SDS011;69130;48.724;8.982;2023-06-22T06:31:25;6.40;;;3.00;;
79662;SDS011;69130;48.724;8.982;2023-06-22T06:33:53;6.95;;;3.35;;
79662;SDS011;69130;48.724;8.982;2023-06-22T06:36:19;7.68;;;3.58;;
79662;SDS011;69130;48.724;8.982;2023-06-22T06:38:44;8.70;;;3.85;;
79662;SDS011;69130;48.724;8.982;2023-06-22T06:41:12;7.25;;;3.53;;
79662;SDS011;69130;48.724;8.982;2023-06-22T06:43:37;7.05;;;3.15;;
79662;SDS011;69130;48.724;8.982;2023-06-22T06:46:03;6.57;;;3.30;;
79662;SDS011;69130;48.724;8.982;2023-06-22T06:48:28;6.20;;;3.20;;
79662;SDS011;69130;48.724;8.982;2023-06-22T06:50:53;5.65;;;2.90;;
79662;SDS011;69130;48.724;8.982;2023-06-22T06:53:19;6.20;;;2.70;;
79662;SDS011;69130;48.724;8.982;2023-06-22T06:55:44;5.80;;;3.17;;
79662;SDS011;69130;48.724;8.982;2023-06-22T06:58:10;5.53;;;3.28;;
79662;SDS011;69130;48.724;8.982;2023-06-22T07:00:38;5.70;;;3.00;;
79662;SDS011;69130;48.724;8.982;2023-06-22T07:03:03;6.32;;;3.47;;
79662;SDS011;69130;48.724;8.982;2023-06-22T07:05:29;9.00;;;3.35;;
79662;SDS011;69130;48.724;8.982;2023-06-22T07:07:54;7.05;;;2.88;;
79662;SDS011;69130;48.724;8.982;2023-06-22T07:10:20;6.35;;;3.63;;
79662;SDS011;69130;48.724;8.982;2023-06-22T07:12:45;6.55;;;3.25;;
79662;SDS011;69130;48.724;8.982;2023-06-22T07:15:11;6.13;;;2.60;;
79662;SDS011;69130;48.724;8.982;2023-06-22T07:17:37;5.43;;;2.78;;
79662;SDS011;69130;48.724;8.982;2023-06-22T07:20:05;9.50;;;2.90;;
79662;SDS011;69130;48.724;8.982;2023-06-22T07:25:01;6.93;;;2.88;;
79662;SDS011;69130;48.724;8.982;2023-06-22T07:27:30;9.48;;;3.25;;
79662;SDS011;69130;48.724;8.982;2023-06-22T07:30:00;5.20;;;3.13;;
79662;SDS011;69130;48.724;8.982;2023-06-22T07:32:26;5.53;;;2.88;;
79662;SDS011;69130;48.724;8.982;2023-06-22T07:34:53;6.35;;;3.25;;
79662;SDS011;69130;48.724;8.982;2023-06-22T07:37:18;8.02;;;3.22;;
79662;SDS011;69130;48.724;8.982;2023-06-22T07:39:44;7.15;;;3.03;;
79662;SDS011;69130;48.724;8.982;2023-06-22T07:42:09;5.88;;;3.13;;
79662;SDS011;69130;48.724;8.982;2023-06-22T07:44:35;7.30;;;2.92;;
79662;SDS011;69130;48.724;8.982;2023-06-22T07:47:00;6.32;;;2.92;;
79662;SDS011;69130;48.724;8.982;2023-06-22T07:49:27;6.65;;;3.47;;
79662;SDS011;69130;48.724;8.982;2023-06-22T07:51:53;8.35;;;2.78;;
79662;SDS011;69130;48.724;8.982;2023-06-22T07:54:18;7.45;;;3.25;;
79662;SDS011;69130;48.724;8.982;2023-06-22T07:56:44;9.00;;;2.75;;
79662;SDS011;69130;48.724;8.982;2023-06-22T07:59:11;7.25;;;3.10;;
79662;SDS011;69130;48.724;8.982;2023-06-22T08:01:36;7.90;;;3.55;;
79662;SDS011;69130;48.724;8.982;2023-06-22T08:04:01;5.68;;;3.40;;
79662;SDS011;69130;48.724;8.982;2023-06-22T08:06:28;6.35;;;3.15;;
79662;SDS011;69130;48.724;8.982;2023-06-22T08:08:55;9.70;;;3.40;;
79662;SDS011;69130;48.724;8.982;2023-06-22T08:11:21;5.40;;;2.67;;
79662;SDS011;69130;48.724;8.982;2023-06-22T08:13:48;6.25;;;3.20;;
79662;SDS011;69130;48.724;8.982;2023-06-22T08:16:14;8.98;;;3.78;;
79662;SDS011;69130;48.724;8.982;2023-06-22T08:18:40;6.65;;;3.30;;
79662;SDS011;69130;48.724;8.982;2023-06-22T08:21:05;8.38;;;3.28;;
79662;SDS011;69130;48.724;8.982;2023-06-22T08:23:30;8.93;;;3.47;;
79662;SDS011;69130;48.724;8.982;2023-06-22T08:25:55;6.28;;;3.25;;
79662;SDS011;69130;48.724;8.982;2023-06-22T08:28:21;9.77;;;3.90;;
79662;SDS011;69130;48.724;8.982;2023-06-22T08:30:46;6.13;;;3.42;;
79662;SDS011;69130;48.724;8.982;2023-06-22T08:33:12;5.60;;;2.65;;
79662;SDS011;69130;48.724;8.982;2023-06-22T08:35:37;6.05;;;3.70;;
79662;SDS011;69130;48.724;8.982;2023-06-22T08:38:03;6.55;;;3.38;;
79662;SDS011;69130;48.724;8.982;2023-06-22T08:40:29;8.38;;;4.05;;
79662;SDS011;69130;48.724;8.982;2023-06-22T08:42:54;7.55;;;3.78;;
79662;SDS011;69130;48.724;8.982;2023-06-22T08:45:20;8.98;;;3.53;;
79662;SDS011;69130;48.724;8.982;2023-06-22T08:47:46;7.97;;;3.78;;
79662;SDS011;69130;48.724;8.982;2023-06-22T08:50:11;7.00;;;3.75;;
79662;SDS011;69130;48.724;8.982;2023-06-22T08:52:38;7.72;;;3.30;;
79662;SDS011;69130;48.724;8.982;2023-06-22T08:55:06;9.48;;;4.28;;
79662;SDS011;69130;48.724;8.982;2023-06-22T08:57:32;11.15;;;4.40;;
79662;SDS011;69130;48.724;8.982;2023-06-22T08:59:57;8.07;;;3.72;;
79662;SDS011;69130;48.724;8.982;2023-06-22T09:02:24;8.45;;;3.42;;
79662;SDS011;69130;48.724;8.982;2023-06-22T09:04:56;5.38;;;2.90;;
79662;SDS011;69130;48.724;8.982;2023-06-22T09:07:22;6.18;;;4.07;;
79662;SDS011;69130;48.724;8.982;2023-06-22T09:09:49;6.85;;;3.95;;
79662;SDS011;69130;48.724;8.982;2023-06-22T09:12:15;5.30;;;3.90;;
79662;SDS011;69130;48.724;8.982;2023-06-22T09:14:40;7.80;;;3.78;;
79662;SDS011;69130;48.724;8.982;2023-06-22T09:17:06;6.95;;;4.20;;
79662;SDS011;69130;48.724;8.982;2023-06-22T09:19:31;7.25;;;3.85;;
79662;SDS011;69130;48.724;8.982;2023-06-22T09:21:57;7.35;;;3.53;;
79662;SDS011;69130;48.724;8.982;2023-06-22T09:24:22;9.30;;;3.58;;
79662;SDS011;69130;48.724;8.982;2023-06-22T09:26:47;6.85;;;3.60;;
79662;SDS011;69130;48.724;8.982;2023-06-22T09:29:13;8.93;;;4.55;;
79662;SDS011;69130;48.724;8.982;2023-06-22T09:31:38;9.55;;;3.88;;
79662;SDS011;69130;48.724;8.982;2023-06-22T09:34:04;7.70;;;3.90;;
79662;SDS011;69130;48.724;8.982;2023-06-22T09:36:29;7.93;;;3.63;;
79662;SDS011;69130;48.724;8.982;2023-06-22T09:38:55;7.53;;;3.92;;
79662;SDS011;69130;48.724;8.982;2023-06-22T09:41:23;7.35;;;4.13;;
79662;SDS011;69130;48.724;8.982;2023-06-22T09:43:49;9.85;;;3.67;;
79662;SDS011;69130;48.724;8.982;2023-06-22T09:46:17;9.82;;;3.70;;
79662;SDS011;69130;48.724;8.982;2023-06-22T09:48:42;7.97;;;4.00;;
79662;SDS011;69130;48.724;8.982;2023-06-22T09:51:08;8.38;;;3.42;;
79662;SDS011;69130;48.724;8.982;2023-06-22T09:53:33;7.15;;;3.78;;
79662;SDS011;69130;48.724;8.982;2023-06-22T09:56:00;7.38;;;3.45;;
79662;SDS011;69130;48.724;8.982;2023-06-22T09:58:26;10.85;;;4.18;;
79662;SDS011;69130;48.724;8.982;2023-06-22T10:00:51;8.75;;;4.20;;
79662;SDS011;69130;48.724;8.982;2023-06-22T10:03:17;10.07;;;4.45;;
79662;SDS011;69130;48.724;8.982;2023-06-22T10:05:43;7.75;;;3.85;;
79662;SDS011;69130;48.724;8.982;2023-06-22T10:08:08;8.20;;;3.25;;
79662;SDS011;69130;48.724;8.982;2023-06-22T10:10:34;9.80;;;4.00;;
79662;SDS011;69130;48.724;8.982;2023-06-22T10:13:02;7.60;;;3.78;;
79662;SDS011;69130;48.724;8.982;2023-06-22T10:15:35;7.18;;;4.03;;
79662;SDS011;69130;48.724;8.982;2023-06-22T10:18:00;10.20;;;3.75;;
79662;SDS011;69130;48.724;8.982;2023-06-22T10:20:25;11.68;;;4.05;;
79662;SDS011;69130;48.724;8.982;2023-06-22T10:22:51;7.32;;;3.80;;
79662;SDS011;69130;48.724;8.982;2023-06-22T10:25:17;7.68;;;3.50;;
79662;SDS011;69130;48.724;8.982;2023-06-22T10:27:42;7.45;;;3.97;;
79662;SDS011;69130;48.724;8.982;2023-06-22T10:30:08;7.50;;;4.15;;
79662;SDS011;69130;48.724;8.982;2023-06-22T10:32:35;8.57;;;3.42;;
79662;SDS011;69130;48.724;8.982;2023-06-22T10:35:01;8.27;;;3.63;;
79662;SDS011;69130;48.724;8.982;2023-06-22T10:37:27;10.80;;;3.78;;
79662;SDS011;69130;48.724;8.982;2023-06-22T10:39:52;7.50;;;3.72;;
79662;SDS011;69130;48.724;8.982;2023-06-22T10:42:17;8.90;;;3.70;;
79662;SDS011;69130;48.724;8.982;2023-06-22T10:44:43;9.65;;;4.15;;
79662;SDS011;69130;48.724;8.982;2023-06-22T10:47:09;9.05;;;3.65;;
79662;SDS011;69130;48.724;8.982;2023-06-22T10:49:36;9.50;;;4.00;;
79662;SDS011;69130;48.724;8.982;2023-06-22T10:52:02;7.40;;;3.75;;
79662;SDS011;69130;48.724;8.982;2023-06-22T10:54:28;9.05;;;4.13;;
79662;SDS011;69130;48.724;8.982;2023-06-22T10:56:54;9.18;;;4.07;;
79662;SDS011;69130;48.724;8.982;2023-06-22T10:59:19;8.05;;;3.90;;
79662;SDS011;69130;48.724;8.982;2023-06-22T11:01:46;6.90;;;3.40;;
79662;SDS011;69130;48.724;8.982;2023-06-22T11:04:12;9.90;;;5.65;;
79662;SDS011;69130;48.724;8.982;2023-06-22T11:06:37;8.65;;;4.93;;
79662;SDS011;69130;48.724;8.982;2023-06-22T11:09:02;12.07;;;6.20;;
79662;SDS011;69130;48.724;8.982;2023-06-22T11:11:29;8.55;;;4.63;;
79662;SDS011;69130;48.724;8.982;2023-06-22T11:13:54;8.93;;;5.10;;
79662;SDS011;69130;48.724;8.982;2023-06-22T11:16:19;11.15;;;6.32;;
79662;SDS011;69130;48.724;8.982;2023-06-22T11:18:45;10.10;;;5.03;;
79662;SDS011;69130;48.724;8.982;2023-06-22T11:21:10;7.28;;;4.15;;
79662;SDS011;69130;48.724;8.982;2023-06-22T11:23:35;7.85;;;4.47;;
79662;SDS011;69130;48.724;8.982;2023-06-22T11:26:01;8.65;;;3.72;;
79662;SDS011;69130;48.724;8.982;2023-06-22T11:28:27;8.65;;;5.55;;
79662;SDS011;69130;48.724;8.982;2023-06-22T11:30:52;9.60;;;5.00;;
79662;SDS011;69130;48.724;8.982;2023-06-22T11:33:18;8.45;;;4.53;;
79662;SDS011;69130;48.724;8.982;2023-06-22T11:35:43;9.60;;;4.05;;
79662;SDS011;69130;48.724;8.982;2023-06-22T11:38:08;8.75;;;3.80;;
79662;SDS011;69130;48.724;8.982;2023-06-22T11:40:34;9.30;;;4.03;;
79662;SDS011;69130;48.724;8.982;2023-06-22T11:42:59;10.90;;;4.25;;
79662;SDS011;69130;48.724;8.982;2023-06-22T11:45:24;7.47;;;3.83;;
79662;SDS011;69130;48.724;8.982;2023-06-22T11:47:50;8.85;;;4.45;;
79662;SDS011;69130;48.724;8.982;2023-06-22T11:50:15;14.50;;;4.28;;
79662;SDS011;69130;48.724;8.982;2023-06-22T11:52:41;6.28;;;3.40;;
79662;SDS011;69130;48.724;8.982;2023-06-22T11:55:06;7.68;;;4.78;;
79662;SDS011;69130;48.724;8.982;2023-06-22T11:57:35;9.55;;;4.70;;
79662;SDS011;69130;48.724;8.982;2023-06-22T12:00:05;9.02;;;3.97;;
79662;SDS011;69130;48.724;8.982;2023-06-22T12:02:41;9.18;;;4.18;;
79662;SDS011;69130;48.724;8.982;2023-06-22T12:05:07;7.00;;;3.47;;
79662;SDS011;69130;48.724;8.982;2023-06-22T12:07:33;9.82;;;4.50;;
79662;SDS011;69130;48.724;8.982;2023-06-22T12:09:58;7.03;;;3.53;;
79662;SDS011;69130;48.724;8.982;2023-06-22T12:12:24;7.80;;;4.10;;
79662;SDS011;69130;48.724;8.982;2023-06-22T12:14:49;9.07;;;4.38;;
79662;SDS011;69130;48.724;8.982;2023-06-22T12:17:14;6.65;;;4.15;;
79662;SDS011;69130;48.724;8.982;2023-06-22T12:19:40;13.07;;;4.65;;
79662;SDS011;69130;48.724;8.982;2023-06-22T12:22:05;8.73;;;4.15;;
79662;SDS011;69130;48.724;8.982;2023-06-22T12:24:30;7.95;;;4.10;;
79662;SDS011;69130;48.724;8.982;2023-06-22T12:26:56;10.35;;;3.92;;
79662;SDS011;69130;48.724;8.982;2023-06-22T12:29:21;7.90;;;3.60;;
79662;SDS011;69130;48.724;8.982;2023-06-22T12:31:46;8.50;;;4.10;;
79662;SDS011;69130;48.724;8.982;2023-06-22T12:34:12;10.63;;;4.57;;
79662;SDS011;69130;48.724;8.982;2023-06-22T12:36:37;11.23;;;4.28;;
79662;SDS011;69130;48.724;8.982;2023-06-22T12:39:02;10.68;;;4.65;;
79662;SDS011;69130;48.724;8.982;2023-06-22T12:41:28;9.07;;;3.88;;
79662;SDS011;69130;48.724;8.982;2023-06-22T12:43:53;8.93;;;4.22;;
79662;SDS011;69130;48.724;8.982;2023-06-22T12:46:18;9.60;;;4.50;;
79662;SDS011;69130;48.724;8.982;2023-06-22T12:48:44;9.23;;;3.90;;
79662;SDS011;69130;48.724;8.982;2023-06-22T12:51:09;8.43;;;3.85;;
79662;SDS011;69130;48.724;8.982;2023-06-22T12:53:35;10.55;;;4.10;;
79662;SDS011;69130;48.724;8.982;2023-06-22T12:56:00;10.98;;;3.78;;
79662;SDS011;69130;48.724;8.982;2023-06-22T12:58:29;9.77;;;4.88;;
79662;SDS011;69130;48.724;8.982;2023-06-22T13:00:54;9.98;;;4.60;;
79662;SDS011;69130;48.724;8.982;2023-06-22T13:03:19;10.73;;;4.28;;
79662;SDS011;69130;48.724;8.982;2023-06-22T13:05:44;8.67;;;4.53;;
79662;SDS011;69130;48.724;8.982;2023-06-22T13:08:10;10.48;;;4.72;;
79662;SDS011;69130;48.724;8.982;2023-06-22T13:10:36;8.95;;;4.50;;
79662;SDS011;69130;48.724;8.982;2023-06-22T13:13:01;8.63;;;4.55;;
79662;SDS011;69130;48.724;8.982;2023-06-22T13:15:27;12.07;;;4.32;;
79662;SDS011;69130;48.724;8.982;2023-06-22T13:17:53;10.43;;;4.10;;
79662;SDS011;69130;48.724;8.982;2023-06-22T13:20:19;9.57;;;4.47;;
79662;SDS011;69130;48.724;8.982;2023-06-22T13:22:44;10.35;;;4.05;;
79662;SDS011;69130;48.724;8.982;2023-06-22T13:25:10;7.95;;;4.43;;
79662;SDS011;69130;48.724;8.982;2023-06-22T13:27:37;7.70;;;3.70;;
79662;SDS011;69130;48.724;8.982;2023-06-22T13:30:04;8.57;;;3.38;;
79662;SDS011;69130;48.724;8.982;2023-06-22T13:32:30;8.95;;;4.35;;
79662;SDS011;69130;48.724;8.982;2023-06-22T13:34:55;9.43;;;3.80;;
79662;SDS011;69130;48.724;8.982;2023-06-22T13:37:20;6.93;;;3.95;;
79662;SDS011;69130;48.724;8.982;2023-06-22T13:39:46;6.93;;;4.00;;
79662;SDS011;69130;48.724;8.982;2023-06-22T13:42:11;7.38;;;3.65;;
79662;SDS011;69130;48.724;8.982;2023-06-22T13:44:37;7.18;;;3.92;;
79662;SDS011;69130;48.724;8.982;2023-06-22T13:47:02;11.18;;;3.70;;
79662;SDS011;69130;48.724;8.982;2023-06-22T13:49:29;10.25;;;3.85;;
79662;SDS011;69130;48.724;8.982;2023-06-22T13:51:55;9.20;;;4.10;;
79662;SDS011;69130;48.724;8.982;2023-06-22T13:54:20;7.88;;;3.45;;
79662;SDS011;69130;48.724;8.982;2023-06-22T13:56:46;11.75;;;4.00;;
79662;SDS011;69130;48.724;8.982;2023-06-22T13:59:11;6.43;;;3.83;;
79662;SDS011;69130;48.724;8.982;2023-06-22T14:01:37;8.00;;;3.60;;
79662;SDS011;69130;48.724;8.982;2023-06-22T14:04:04;10.15;;;3.60;;
79662;SDS011;69130;48.724;8.982;2023-06-22T14:06:30;6.30;;;3.47;;
79662;SDS011;69130;48.724;8.982;2023-06-22T14:08:55;7.88;;;4.03;;
79662;SDS011;69130;48.724;8.982;2023-06-22T14:11:21;8.70;;;3.63;;
79662;SDS011;69130;48.724;8.982;2023-06-22T14:13:46;8.88;;;3.83;;
79662;SDS011;69130;48.724;8.982;2023-06-22T14:16:12;9.75;;;3.72;;
79662;SDS011;69130;48.724;8.982;2023-06-22T14:18:37;7.22;;;4.05;;
79662;SDS011;69130;48.724;8.982;2023-06-22T14:21:03;9.48;;;3.75;;
79662;SDS011;69130;48.724;8.982;2023-06-22T14:23:28;8.73;;;3.95;;
79662;SDS011;69130;48.724;8.982;2023-06-22T14:25:53;7.20;;;3.25;;
79662;SDS011;69130;48.724;8.982;2023-06-22T14:28:19;12.38;;;2.80;;
79662;SDS011;69130;48.724;8.982;2023-06-22T14:30:44;6.60;;;2.47;;
79662;SDS011;69130;48.724;8.982;2023-06-22T14:33:09;10.10;;;2.40;;
79662;SDS011;69130;48.724;8.982;2023-06-22T14:35:36;10.23;;;2.38;;
79662;SDS011;69130;48.724;8.982;2023-06-22T14:38:01;7.45;;;2.42;;
79662;SDS011;69130;48.724;8.982;2023-06-22T14:40:26;9.40;;;2.17;;
79662;SDS011;69130;48.724;8.982;2023-06-22T14:42:52;7.95;;;2.15;;
79662;SDS011;69130;48.724;8.982;2023-06-22T14:45:17;7.53;;;2.70;;
79662;SDS011;69130;48.724;8.982;2023-06-22T14:47:43;5.82;;;2.35;;
79662;SDS011;69130;48.724;8.982;2023-06-22T14:50:08;7.82;;;2.42;;